sensor_id;sensor_type;location;lat;lon;timestamp;temperature;humidity
16102;DHT22;56411;52.964;10.540;2024-02-14T00:00:31;3.30;99.90
16102;DHT22;56411;52.964;10.540;2024-02-14T00:03:15;3.30;99.90
16102;DHT22;56411;52.964;10.540;2024-02-14T00:05:45;3.30;99.90
16102;DHT22;56411;52.964;10.540;2024-02-14T00:08:16;3.30;99.90
16102;DHT22;56411;52.964;10.540;2024-02-14T00:11:08;3.40;99.90
16102;DHT22;56411;52.964;10.540;2024-02-14T00:13:37;3.40;99.90
16102;DHT22;56411;52.964;10.540;2024-02-14T00:16:20;3.50;99.90
16102;DHT22;56411;52.964;10.540;2024-02-14T00:19:05;3.50;99.90
16102;DHT22;56411;52.964;10.540;2024-02-14T00:21:34;3.50;99.90
16102;DHT22;56411;52.964;10.540;2024-02-14T00:24:06;3.50;99.90
16102;DHT22;56411;52.964;10.540;2024-02-14T00:26:35;3.60;99.90
16102;DHT22;56411;52.964;10.540;2024-02-14T00:29:05;3.70;99.90
16102;DHT22;56411;52.964;10.540;2024-02-14T00:31:33;3.70;99.90
16102;DHT22;56411;52.964;10.540;2024-02-14T00:34:01;3.70;99.90
16102;DHT22;56411;52.964;10.540;2024-02-14T00:36:29;3.80;99.90
16102;DHT22;56411;52.964;10.540;2024-02-14T00:38:57;3.80;99.90
16102;DHT22;56411;52.964;10.540;2024-02-14T00:41:27;3.90;99.90
16102;DHT22;56411;52.964;10.540;2024-02-14T00:44:06;3.90;99.90
16102;DHT22;56411;52.964;10.540;2024-02-14T00:46:35;3.90;99.90
16102;DHT22;56411;52.964;10.540;2024-02-14T00:49:03;4.00;99.90
16102;DHT22;56411;52.964;10.540;2024-02-14T00:51:32;4.10;99.90
16102;DHT22;56411;52.964;10.540;2024-02-14T00:54:00;4.10;99.90
16102;DHT22;56411;52.964;10.540;2024-02-14T00:56:33;4.10;99.90
16102;DHT22;56411;52.964;10.540;2024-02-14T00:59:02;4.20;99.90
16102;DHT22;56411;52.964;10.540;2024-02-14T01:01:55;4.20;99.90
16102;DHT22;56411;52.964;10.540;2024-02-14T01:04:25;4.30;99.90
16102;DHT22;56411;52.964;10.540;2024-02-14T01:06:53;4.30;99.90
16102;DHT22;56411;52.964;10.540;2024-02-14T01:09:31;4.40;99.90
16102;DHT22;56411;52.964;10.540;2024-02-14T01:12:01;4.40;99.90
16102;DHT22;56411;52.964;10.540;2024-02-14T01:14:30;4.40;99.90
16102;DHT22;56411;52.964;10.540;2024-02-14T01:16:58;4.50;99.90
16102;DHT22;56411;52.964;10.540;2024-02-14T01:19:27;4.50;99.90
16102;DHT22;56411;52.964;10.540;2024-02-14T01:21:56;4.50;99.90
16102;DHT22;56411;52.964;10.540;2024-02-14T01:24:38;4.60;99.90
16102;DHT22;56411;52.964;10.540;2024-02-14T01:27:10;4.60;99.90
16102;DHT22;56411;52.964;10.540;2024-02-14T01:29:38;4.70;99.90
16102;DHT22;56411;52.964;10.540;2024-02-14T01:32:20;4.70;99.90
16102;DHT22;56411;52.964;10.540;2024-02-14T01:34:59;4.70;99.90
16102;DHT22;56411;52.964;10.540;2024-02-14T01:37:27;4.70;99.90
16102;DHT22;56411;52.964;10.540;2024-02-14T01:40:11;4.70;99.90
16102;DHT22;56411;52.964;10.540;2024-02-14T01:42:41;4.70;99.90
16102;DHT22;56411;52.964;10.540;2024-02-14T01:45:11;4.60;99.90
16102;DHT22;56411;52.964;10.540;2024-02-14T01:47:40;4.60;99.90
16102;DHT22;56411;52.964;10.540;2024-02-14T01:50:10;4.60;99.90
16102;DHT22;56411;52.964;10.540;2024-02-14T01:52:40;4.70;99.90
16102;DHT22;56411;52.964;10.540;2024-02-14T01:55:11;4.70;99.90
16102;DHT22;56411;52.964;10.540;2024-02-14T01:57:43;4.60;99.90
16102;DHT22;56411;52.964;10.540;2024-02-14T02:00:13;4.70;99.90
16102;DHT22;56411;52.964;10.540;2024-02-14T02:02:44;4.70;99.90
16102;DHT22;56411;52.964;10.540;2024-02-14T02:05:15;4.70;99.90
16102;DHT22;56411;52.964;10.540;2024-02-14T02:07:57;4.70;99.90
16102;DHT22;56411;52.964;10.540;2024-02-14T02:10:28;4.70;99.90
16102;DHT22;56411;52.964;10.540;2024-02-14T02:13:00;4.60;99.90
16102;DHT22;56411;52.964;10.540;2024-02-14T02:15:29;4.50;99.90
16102;DHT22;56411;52.964;10.540;2024-02-14T02:17:59;4.60;99.90
16102;DHT22;56411;52.964;10.540;2024-02-14T02:20:29;4.60;99.90
16102;DHT22;56411;52.964;10.540;2024-02-14T02:22:59;4.60;99.90
16102;DHT22;56411;52.964;10.540;2024-02-14T02:25:28;4.50;99.90
16102;DHT22;56411;52.964;10.540;2024-02-14T02:27:56;4.60;99.90
16102;DHT22;56411;52.964;10.540;2024-02-14T02:30:24;4.60;99.90
16102;DHT22;56411;52.964;10.540;2024-02-14T02:32:53;4.60;99.90
16102;DHT22;56411;52.964;10.540;2024-02-14T02:35:36;4.60;99.90
16102;DHT22;56411;52.964;10.540;2024-02-14T02:38:16;4.50;99.90
16102;DHT22;56411;52.964;10.540;2024-02-14T02:40:46;4.60;99.90
16102;DHT22;56411;52.964;10.540;2024-02-14T02:43:29;4.60;99.90
16102;DHT22;56411;52.964;10.540;2024-02-14T02:45:59;4.50;99.90
16102;DHT22;56411;52.964;10.540;2024-02-14T02:48:42;4.60;99.90
16102;DHT22;56411;52.964;10.540;2024-02-14T02:51:11;4.60;99.90
16102;DHT22;56411;52.964;10.540;2024-02-14T02:53:44;4.50;99.90
16102;DHT22;56411;52.964;10.540;2024-02-14T02:56:29;4.60;99.90
16102;DHT22;56411;52.964;10.540;2024-02-14T02:59:08;4.50;99.90
16102;DHT22;56411;52.964;10.540;2024-02-14T03:01:39;4.60;99.90
16102;DHT22;56411;52.964;10.540;2024-02-14T03:04:17;4.60;99.90
16102;DHT22;56411;52.964;10.540;2024-02-14T03:06:48;4.50;99.90
16102;DHT22;56411;52.964;10.540;2024-02-14T03:09:34;4.60;99.90
16102;DHT22;56411;52.964;10.540;2024-02-14T03:12:16;4.60;99.90
16102;DHT22;56411;52.964;10.540;2024-02-14T03:14:59;4.60;99.90
16102;DHT22;56411;52.964;10.540;2024-02-14T03:17:42;4.60;99.90
16102;DHT22;56411;52.964;10.540;2024-02-14T03:20:11;4.60;99.90
16102;DHT22;56411;52.964;10.540;2024-02-14T03:22:42;4.60;99.90
16102;DHT22;56411;52.964;10.540;2024-02-14T03:25:18;4.60;99.90
16102;DHT22;56411;52.964;10.540;2024-02-14T03:28:16;4.70;99.90
16102;DHT22;56411;52.964;10.540;2024-02-14T03:30:49;4.70;99.90
16102;DHT22;56411;52.964;10.540;2024-02-14T03:33:32;4.70;99.90
16102;DHT22;56411;52.964;10.540;2024-02-14T03:35:59;4.60;99.90
16102;DHT22;56411;52.964;10.540;2024-02-14T03:38:26;4.60;99.90
16102;DHT22;56411;52.964;10.540;2024-02-14T03:40:56;4.70;99.90
16102;DHT22;56411;52.964;10.540;2024-02-14T03:43:24;4.70;99.90
16102;DHT22;56411;52.964;10.540;2024-02-14T03:45:51;4.60;99.90
16102;DHT22;56411;52.964;10.540;2024-02-14T03:48:17;4.60;99.90
16102;DHT22;56411;52.964;10.540;2024-02-14T03:50:45;4.60;99.90
16102;DHT22;56411;52.964;10.540;2024-02-14T03:53:12;4.60;99.90
16102;DHT22;56411;52.964;10.540;2024-02-14T03:55:40;4.60;99.90
16102;DHT22;56411;52.964;10.540;2024-02-14T03:58:11;4.60;99.90
16102;DHT22;56411;52.964;10.540;2024-02-14T04:00:40;4.60;99.90
16102;DHT22;56411;52.964;10.540;2024-02-14T04:03:11;4.60;99.90
16102;DHT22;56411;52.964;10.540;2024-02-14T04:05:39;4.60;99.90
16102;DHT22;56411;52.964;10.540;2024-02-14T04:08:06;4.60;99.90
16102;DHT22;56411;52.964;10.540;2024-02-14T04:10:35;4.60;99.90
16102;DHT22;56411;52.964;10.540;2024-02-14T04:13:03;4.60;99.90
16102;DHT22;56411;52.964;10.540;2024-02-14T04:15:32;4.60;99.90
16102;DHT22;56411;52.964;10.540;2024-02-14T04:18:01;4.70;99.90
16102;DHT22;56411;52.964;10.540;2024-02-14T04:20:31;4.70;99.90
16102;DHT22;56411;52.964;10.540;2024-02-14T04:22:59;4.70;99.90
16102;DHT22;56411;52.964;10.540;2024-02-14T04:25:26;4.70;99.90
16102;DHT22;56411;52.964;10.540;2024-02-14T04:28:04;4.70;99.90
16102;DHT22;56411;52.964;10.540;2024-02-14T04:30:33;4.80;99.90
16102;DHT22;56411;52.964;10.540;2024-02-14T04:33:02;4.80;99.90
16102;DHT22;56411;52.964;10.540;2024-02-14T04:35:30;4.80;99.90
16102;DHT22;56411;52.964;10.540;2024-02-14T04:37:59;4.80;99.90
16102;DHT22;56411;52.964;10.540;2024-02-14T04:40:27;4.80;99.90
16102;DHT22;56411;52.964;10.540;2024-02-14T04:42:54;4.80;99.90
16102;DHT22;56411;52.964;10.540;2024-02-14T04:45:23;4.90;99.90
16102;DHT22;56411;52.964;10.540;2024-02-14T04:47:53;4.90;99.90
16102;DHT22;56411;52.964;10.540;2024-02-14T04:50:21;4.90;99.90
16102;DHT22;56411;52.964;10.540;2024-02-14T04:52:49;4.90;99.90
16102;DHT22;56411;52.964;10.540;2024-02-14T04:55:18;4.90;99.90
16102;DHT22;56411;52.964;10.540;2024-02-14T04:57:46;4.90;99.90
16102;DHT22;56411;52.964;10.540;2024-02-14T05:00:15;4.90;99.90
16102;DHT22;56411;52.964;10.540;2024-02-14T05:02:43;4.90;99.90
16102;DHT22;56411;52.964;10.540;2024-02-14T05:05:12;4.90;99.90
16102;DHT22;56411;52.964;10.540;2024-02-14T05:07:42;4.90;99.90
16102;DHT22;56411;52.964;10.540;2024-02-14T05:10:10;5.00;99.90
16102;DHT22;56411;52.964;10.540;2024-02-14T05:12:37;5.00;99.90
16102;DHT22;56411;52.964;10.540;2024-02-14T05:15:05;5.10;99.90
16102;DHT22;56411;52.964;10.540;2024-02-14T05:17:33;5.10;99.90
16102;DHT22;56411;52.964;10.540;2024-02-14T05:20:00;5.10;99.90
16102;DHT22;56411;52.964;10.540;2024-02-14T05:22:29;5.10;99.90
16102;DHT22;56411;52.964;10.540;2024-02-14T05:24:57;5.00;99.90
16102;DHT22;56411;52.964;10.540;2024-02-14T05:27:25;5.00;99.90
16102;DHT22;56411;52.964;10.540;2024-02-14T05:29:52;5.00;99.90
16102;DHT22;56411;52.964;10.540;2024-02-14T05:32:19;5.00;99.90
16102;DHT22;56411;52.964;10.540;2024-02-14T05:34:46;5.00;99.90
16102;DHT22;56411;52.964;10.540;2024-02-14T05:37:14;4.90;99.90
16102;DHT22;56411;52.964;10.540;2024-02-14T05:39:42;4.90;99.90
16102;DHT22;56411;52.964;10.540;2024-02-14T05:42:10;4.90;99.90
16102;DHT22;56411;52.964;10.540;2024-02-14T05:44:37;4.90;99.90
16102;DHT22;56411;52.964;10.540;2024-02-14T05:47:06;4.90;99.90
16102;DHT22;56411;52.964;10.540;2024-02-14T05:49:33;4.90;99.90
16102;DHT22;56411;52.964;10.540;2024-02-14T05:52:00;4.90;99.90
16102;DHT22;56411;52.964;10.540;2024-02-14T05:54:27;5.00;99.90
16102;DHT22;56411;52.964;10.540;2024-02-14T05:56:56;4.90;99.90
16102;DHT22;56411;52.964;10.540;2024-02-14T05:59:23;5.00;99.90
16102;DHT22;56411;52.964;10.540;2024-02-14T06:01:50;4.90;99.90
16102;DHT22;56411;52.964;10.540;2024-02-14T06:04:18;5.00;99.90
16102;DHT22;56411;52.964;10.540;2024-02-14T06:06:46;5.00;99.90
16102;DHT22;56411;52.964;10.540;2024-02-14T06:09:13;5.00;99.90
16102;DHT22;56411;52.964;10.540;2024-02-14T06:11:40;5.00;99.90
16102;DHT22;56411;52.964;10.540;2024-02-14T06:14:09;5.10;99.90
16102;DHT22;56411;52.964;10.540;2024-02-14T06:16:36;5.10;99.90
16102;DHT22;56411;52.964;10.540;2024-02-14T06:19:04;5.10;99.90
16102;DHT22;56411;52.964;10.540;2024-02-14T06:21:31;5.10;99.90
16102;DHT22;56411;52.964;10.540;2024-02-14T06:24:00;5.10;99.90
16102;DHT22;56411;52.964;10.540;2024-02-14T06:26:29;5.20;99.90
16102;DHT22;56411;52.964;10.540;2024-02-14T06:28:56;5.20;99.90
16102;DHT22;56411;52.964;10.540;2024-02-14T06:31:25;5.20;99.90
16102;DHT22;56411;52.964;10.540;2024-02-14T06:33:53;5.20;99.90
16102;DHT22;56411;52.964;10.540;2024-02-14T06:36:21;5.20;99.90
16102;DHT22;56411;52.964;10.540;2024-02-14T06:38:48;5.20;99.90
16102;DHT22;56411;52.964;10.540;2024-02-14T06:41:16;5.20;99.90
16102;DHT22;56411;52.964;10.540;2024-02-14T06:43:45;5.30;99.90
16102;DHT22;56411;52.964;10.540;2024-02-14T06:46:13;5.20;99.90
16102;DHT22;56411;52.964;10.540;2024-02-14T06:48:41;5.30;99.90
16102;DHT22;56411;52.964;10.540;2024-02-14T06:51:12;5.30;99.90
16102;DHT22;56411;52.964;10.540;2024-02-14T06:53:39;5.30;99.90
16102;DHT22;56411;52.964;10.540;2024-02-14T06:56:06;5.30;99.90
16102;DHT22;56411;52.964;10.540;2024-02-14T06:58:35;5.40;99.90
16102;DHT22;56411;52.964;10.540;2024-02-14T07:01:03;5.40;99.90
16102;DHT22;56411;52.964;10.540;2024-02-14T07:03:30;5.30;99.90
16102;DHT22;56411;52.964;10.540;2024-02-14T07:06:00;5.40;99.90
16102;DHT22;56411;52.964;10.540;2024-02-14T07:08:27;5.40;99.90
16102;DHT22;56411;52.964;10.540;2024-02-14T07:10:55;5.40;99.90
16102;DHT22;56411;52.964;10.540;2024-02-14T07:13:22;5.40;99.90
16102;DHT22;56411;52.964;10.540;2024-02-14T07:15:49;5.40;99.90
16102;DHT22;56411;52.964;10.540;2024-02-14T07:18:16;5.50;99.90
16102;DHT22;56411;52.964;10.540;2024-02-14T07:20:43;5.50;99.90
16102;DHT22;56411;52.964;10.540;2024-02-14T07:23:13;5.50;99.90
16102;DHT22;56411;52.964;10.540;2024-02-14T07:25:41;5.60;99.90
16102;DHT22;56411;52.964;10.540;2024-02-14T07:28:08;5.60;99.90
16102;DHT22;56411;52.964;10.540;2024-02-14T07:30:36;5.60;99.90
16102;DHT22;56411;52.964;10.540;2024-02-14T07:33:04;5.60;99.90
16102;DHT22;56411;52.964;10.540;2024-02-14T07:35:31;5.60;99.90
16102;DHT22;56411;52.964;10.540;2024-02-14T07:37:58;5.60;99.90
16102;DHT22;56411;52.964;10.540;2024-02-14T07:40:27;5.60;99.90
16102;DHT22;56411;52.964;10.540;2024-02-14T07:42:56;5.70;99.90
16102;DHT22;56411;52.964;10.540;2024-02-14T07:45:23;5.70;99.90
16102;DHT22;56411;52.964;10.540;2024-02-14T07:47:51;5.70;99.90
16102;DHT22;56411;52.964;10.540;2024-02-14T07:50:18;5.70;99.90
16102;DHT22;56411;52.964;10.540;2024-02-14T07:52:46;5.80;99.90
16102;DHT22;56411;52.964;10.540;2024-02-14T07:55:14;5.80;99.90
16102;DHT22;56411;52.964;10.540;2024-02-14T07:57:44;5.80;99.90
16102;DHT22;56411;52.964;10.540;2024-02-14T08:00:12;5.90;99.90
16102;DHT22;56411;52.964;10.540;2024-02-14T08:02:44;5.90;99.90
16102;DHT22;56411;52.964;10.540;2024-02-14T08:05:12;5.90;99.90
16102;DHT22;56411;52.964;10.540;2024-02-14T08:07:39;6.00;99.90
16102;DHT22;56411;52.964;10.540;2024-02-14T08:10:07;6.00;99.90
16102;DHT22;56411;52.964;10.540;2024-02-14T08:12:35;6.10;99.90
16102;DHT22;56411;52.964;10.540;2024-02-14T08:15:05;6.10;99.90
16102;DHT22;56411;52.964;10.540;2024-02-14T08:17:33;6.20;99.90
16102;DHT22;56411;52.964;10.540;2024-02-14T08:20:13;6.20;99.90
16102;DHT22;56411;52.964;10.540;2024-02-14T08:22:40;6.30;99.90
16102;DHT22;56411;52.964;10.540;2024-02-14T08:25:14;6.30;99.90
16102;DHT22;56411;52.964;10.540;2024-02-14T09:44:17;7.20;99.90
16102;DHT22;56411;52.964;10.540;2024-02-14T09:47:27;7.20;99.90
16102;DHT22;56411;52.964;10.540;2024-02-14T10:06:58;7.50;99.90
16102;DHT22;56411;52.964;10.540;2024-02-14T10:26:48;7.80;99.90
16102;DHT22;56411;52.964;10.540;2024-02-14T10:29:51;7.90;99.90
16102;DHT22;56411;52.964;10.540;2024-02-14T12:12:40;9.50;99.90
16102;DHT22;56411;52.964;10.540;2024-02-14T12:15:10;9.50;99.90
16102;DHT22;56411;52.964;10.540;2024-02-14T12:17:54;9.60;99.90
16102;DHT22;56411;52.964;10.540;2024-02-14T12:23:46;9.60;99.90
16102;DHT22;56411;52.964;10.540;2024-02-14T12:29:27;9.60;99.90
16102;DHT22;56411;52.964;10.540;2024-02-14T12:32:06;9.60;99.90
16102;DHT22;56411;52.964;10.540;2024-02-14T12:34:55;9.70;99.90
16102;DHT22;56411;52.964;10.540;2024-02-14T12:37:32;9.70;99.90
16102;DHT22;56411;52.964;10.540;2024-02-14T12:40:14;9.70;99.90
16102;DHT22;56411;52.964;10.540;2024-02-14T12:42:45;9.70;99.90
16102;DHT22;56411;52.964;10.540;2024-02-14T12:45:33;9.70;99.90
16102;DHT22;56411;52.964;10.540;2024-02-14T12:48:00;9.70;99.90
16102;DHT22;56411;52.964;10.540;2024-02-14T12:50:30;9.70;99.90
16102;DHT22;56411;52.964;10.540;2024-02-14T12:53:00;9.70;99.90
16102;DHT22;56411;52.964;10.540;2024-02-14T12:59:00;9.70;99.90
16102;DHT22;56411;52.964;10.540;2024-02-14T13:01:30;9.70;99.90
16102;DHT22;56411;52.964;10.540;2024-02-14T13:03:57;9.70;99.90
16102;DHT22;56411;52.964;10.540;2024-02-14T13:06:25;9.70;99.90
16102;DHT22;56411;52.964;10.540;2024-02-14T13:08:53;9.60;99.90
16102;DHT22;56411;52.964;10.540;2024-02-14T13:11:30;9.60;99.90
16102;DHT22;56411;52.964;10.540;2024-02-14T13:14:01;9.60;99.90
16102;DHT22;56411;52.964;10.540;2024-02-14T13:16:33;9.60;99.90
16102;DHT22;56411;52.964;10.540;2024-02-14T13:19:00;9.60;99.90
16102;DHT22;56411;52.964;10.540;2024-02-14T13:21:29;9.60;99.90
16102;DHT22;56411;52.964;10.540;2024-02-14T13:23:59;9.60;99.90
16102;DHT22;56411;52.964;10.540;2024-02-14T13:26:26;9.60;99.90
16102;DHT22;56411;52.964;10.540;2024-02-14T13:28:54;9.60;99.90
16102;DHT22;56411;52.964;10.540;2024-02-14T13:31:22;9.70;99.90
16102;DHT22;56411;52.964;10.540;2024-02-14T13:33:53;9.70;99.90
16102;DHT22;56411;52.964;10.540;2024-02-14T13:36:46;9.70;99.90
16102;DHT22;56411;52.964;10.540;2024-02-14T13:39:33;9.70;99.90
16102;DHT22;56411;52.964;10.540;2024-02-14T13:42:03;9.70;99.90
16102;DHT22;56411;52.964;10.540;2024-02-14T13:45:05;9.70;99.90
16102;DHT22;56411;52.964;10.540;2024-02-14T13:47:46;9.70;99.90
16102;DHT22;56411;52.964;10.540;2024-02-14T13:50:25;9.70;99.90
16102;DHT22;56411;52.964;10.540;2024-02-14T13:53:10;9.70;99.90
16102;DHT22;56411;52.964;10.540;2024-02-14T13:55:53;9.70;99.90
16102;DHT22;56411;52.964;10.540;2024-02-14T13:58:27;9.70;99.90
16102;DHT22;56411;52.964;10.540;2024-02-14T14:01:22;9.70;99.90
16102;DHT22;56411;52.964;10.540;2024-02-14T14:04:05;9.70;99.90
16102;DHT22;56411;52.964;10.540;2024-02-14T14:06:37;9.70;99.90
16102;DHT22;56411;52.964;10.540;2024-02-14T14:09:05;9.70;99.90
16102;DHT22;56411;52.964;10.540;2024-02-14T14:11:41;9.70;99.90
16102;DHT22;56411;52.964;10.540;2024-02-14T14:34:34;9.80;99.90
16102;DHT22;56411;52.964;10.540;2024-02-14T14:37:11;9.80;99.90
16102;DHT22;56411;52.964;10.540;2024-02-14T14:43:31;9.80;99.90
16102;DHT22;56411;52.964;10.540;2024-02-14T14:46:11;9.80;99.90
16102;DHT22;56411;52.964;10.540;2024-02-14T14:52:24;9.90;99.90
16102;DHT22;56411;52.964;10.540;2024-02-14T14:58:31;9.90;99.90
16102;DHT22;56411;52.964;10.540;2024-02-14T15:01:01;9.90;99.90
16102;DHT22;56411;52.964;10.540;2024-02-14T15:03:46;10.00;99.90
16102;DHT22;56411;52.964;10.540;2024-02-14T15:06:16;10.00;99.90
16102;DHT22;56411;52.964;10.540;2024-02-14T15:12:30;10.00;99.90
16102;DHT22;56411;52.964;10.540;2024-02-14T15:15:01;10.00;99.90
16102;DHT22;56411;52.964;10.540;2024-02-14T15:17:38;10.00;99.90
16102;DHT22;56411;52.964;10.540;2024-02-14T15:20:08;10.00;99.90
16102;DHT22;56411;52.964;10.540;2024-02-14T15:22:35;10.00;99.90
16102;DHT22;56411;52.964;10.540;2024-02-14T15:25:05;10.00;99.90
16102;DHT22;56411;52.964;10.540;2024-02-14T15:27:39;10.00;99.90
16102;DHT22;56411;52.964;10.540;2024-02-14T15:30:23;10.00;99.90
16102;DHT22;56411;52.964;10.540;2024-02-14T15:33:12;10.00;99.90
16102;DHT22;56411;52.964;10.540;2024-02-14T15:36:19;10.00;99.90
16102;DHT22;56411;52.964;10.540;2024-02-14T15:38:49;10.00;99.90
16102;DHT22;56411;52.964;10.540;2024-02-14T15:41:18;10.00;99.90
16102;DHT22;56411;52.964;10.540;2024-02-14T15:43:50;10.00;99.90
16102;DHT22;56411;52.964;10.540;2024-02-14T15:46:18;10.00;99.90
16102;DHT22;56411;52.964;10.540;2024-02-14T15:48:45;10.00;99.90
16102;DHT22;56411;52.964;10.540;2024-02-14T15:51:12;10.00;99.90
16102;DHT22;56411;52.964;10.540;2024-02-14T15:53:42;10.00;99.90
16102;DHT22;56411;52.964;10.540;2024-02-14T15:56:10;10.00;99.90
16102;DHT22;56411;52.964;10.540;2024-02-14T15:58:39;10.00;99.90
16102;DHT22;56411;52.964;10.540;2024-02-14T16:01:08;10.00;99.90
16102;DHT22;56411;52.964;10.540;2024-02-14T16:03:35;10.00;99.90
16102;DHT22;56411;52.964;10.540;2024-02-14T16:06:02;10.00;99.90
16102;DHT22;56411;52.964;10.540;2024-02-14T16:08:30;10.00;99.90
16102;DHT22;56411;52.964;10.540;2024-02-14T16:10:57;10.00;99.90
16102;DHT22;56411;52.964;10.540;2024-02-14T16:13:25;10.00;99.90
16102;DHT22;56411;52.964;10.540;2024-02-14T16:15:52;10.00;99.90
16102;DHT22;56411;52.964;10.540;2024-02-14T16:18:21;10.00;99.90
16102;DHT22;56411;52.964;10.540;2024-02-14T16:21:09;10.00;99.90
16102;DHT22;56411;52.964;10.540;2024-02-14T16:24:16;10.00;99.90
16102;DHT22;56411;52.964;10.540;2024-02-14T16:27:26;10.00;99.90
16102;DHT22;56411;52.964;10.540;2024-02-14T16:30:15;10.00;99.90
16102;DHT22;56411;52.964;10.540;2024-02-14T16:34:13;9.90;99.90
16102;DHT22;56411;52.964;10.540;2024-02-14T17:02:43;9.80;99.90
16102;DHT22;56411;52.964;10.540;2024-02-14T17:05:44;9.80;99.90
16102;DHT22;56411;52.964;10.540;2024-02-14T17:09:08;9.80;99.90
16102;DHT22;56411;52.964;10.540;2024-02-14T17:12:05;9.70;99.90
16102;DHT22;56411;52.964;10.540;2024-02-14T17:15:06;9.70;99.90
16102;DHT22;56411;52.964;10.540;2024-02-14T17:18:15;9.70;99.90
16102;DHT22;56411;52.964;10.540;2024-02-14T17:21:27;9.70;99.90
16102;DHT22;56411;52.964;10.540;2024-02-14T17:27:33;9.70;99.90
16102;DHT22;56411;52.964;10.540;2024-02-14T17:30:08;9.70;99.90
16102;DHT22;56411;52.964;10.540;2024-02-14T17:32:36;9.70;99.90
16102;DHT22;56411;52.964;10.540;2024-02-14T17:35:11;9.70;99.90
16102;DHT22;56411;52.964;10.540;2024-02-14T17:37:58;9.70;99.90
16102;DHT22;56411;52.964;10.540;2024-02-14T17:47:50;9.60;99.90
16102;DHT22;56411;52.964;10.540;2024-02-14T17:50:55;9.60;99.90
16102;DHT22;56411;52.964;10.540;2024-02-14T20:57:12;9.80;99.90
16102;DHT22;56411;52.964;10.540;2024-02-14T21:00:18;9.80;99.90
16102;DHT22;56411;52.964;10.540;2024-02-14T21:03:03;9.80;99.90
16102;DHT22;56411;52.964;10.540;2024-02-14T21:33:09;9.90;99.90
16102;DHT22;56411;52.964;10.540;2024-02-14T21:35:54;9.90;99.90
16102;DHT22;56411;52.964;10.540;2024-02-14T21:39:05;9.90;99.90
16102;DHT22;56411;52.964;10.540;2024-02-14T21:41:44;9.90;99.90
16102;DHT22;56411;52.964;10.540;2024-02-14T21:44:34;9.90;99.90
16102;DHT22;56411;52.964;10.540;2024-02-14T21:47:39;9.90;99.90
16102;DHT22;56411;52.964;10.540;2024-02-14T22:04:33;9.90;99.90
16102;DHT22;56411;52.964;10.540;2024-02-14T22:11:04;9.90;99.90
16102;DHT22;56411;52.964;10.540;2024-02-14T22:17:14;9.90;99.90
16102;DHT22;56411;52.964;10.540;2024-02-14T22:20:12;9.90;99.90
16102;DHT22;56411;52.964;10.540;2024-02-14T22:23:21;9.90;99.90
16102;DHT22;56411;52.964;10.540;2024-02-14T22:47:27;9.90;99.90
16102;DHT22;56411;52.964;10.540;2024-02-14T23:21:00;10.00;99.90
